createdAt,value
2022-10-14T00:01:27.906Z,100874.88
2022-10-14T00:03:56.545Z,100874.94
2022-10-14T00:06:27.212Z,100869.75
2022-10-14T00:08:56.036Z,100870.69
2022-10-14T00:11:26.876Z,100863.69
2022-10-14T00:13:56.759Z,100873.34
2022-10-14T00:16:29.668Z,100869.00
2022-10-14T00:18:58.752Z,100867.34
2022-10-14T00:21:28.647Z,100867.34
2022-10-14T00:23:57.738Z,100875.25
2022-10-14T00:26:30.784Z,100877.88
2022-10-14T00:29:02.057Z,100880.50
2022-10-14T00:31:34.460Z,100877.88
2022-10-14T00:34:03.359Z,100876.97
2022-10-14T00:36:31.867Z,100879.63
2022-10-14T00:39:00.621Z,100873.47
2022-10-14T00:41:31.931Z,100872.59
2022-10-14T00:44:04.171Z,100873.47
2022-10-14T00:46:36.604Z,100867.34
2022-10-14T00:49:13.157Z,100870.81
2022-10-14T00:51:45.148Z,100865.63
2022-10-14T00:54:17.917Z,100871.75
2022-10-14T00:56:48.984Z,100867.34
2022-10-14T00:59:18.009Z,100859.50
2022-10-14T01:01:47.703Z,100860.34
2022-10-14T01:04:15.911Z,100860.34
2022-10-14T01:06:53.857Z,100860.34
2022-10-14T01:09:29.604Z,100864.69
2022-10-14T01:12:29.592Z,100850.72
2022-10-14T01:15:08.505Z,100858.63
2022-10-14T01:17:53.316Z,100853.38
2022-10-14T01:20:50.572Z,100853.38
2022-10-14T01:24:08.543Z,100851.63
2022-10-14T01:27:00.713Z,100849.91
2022-10-14T01:30:08.867Z,100844.66
2022-10-14T01:32:46.648Z,100845.50
2022-10-14T01:35:30.748Z,100848.19
2022-10-14T01:38:02.882Z,100842.81
2022-10-14T01:40:38.233Z,100841.06
2022-10-14T01:43:07.723Z,100845.47
2022-10-14T01:45:40.894Z,100841.03
2022-10-14T01:48:14.232Z,100840.13
2022-10-14T01:50:46.280Z,100831.34
2022-10-14T01:53:20.545Z,100835.69
2022-10-14T01:55:50.157Z,100834.81
2022-10-14T01:58:21.514Z,100830.44
2022-10-14T02:00:52.559Z,100833.06
2022-10-14T02:03:21.260Z,100827.75
2022-10-14T02:05:59.312Z,100830.44
2022-10-14T02:08:37.235Z,100824.31
2022-10-14T02:11:12.283Z,100825.16
2022-10-14T02:14:05.025Z,100808.56
2022-10-14T02:16:41.909Z,100808.56
2022-10-14T02:19:23.957Z,100811.19
2022-10-14T02:21:59.080Z,100805.91
2022-10-14T02:24:32.559Z,100805.91
2022-10-14T02:27:06.465Z,100799.75
2022-10-14T02:29:36.155Z,100793.63
2022-10-14T02:32:08.107Z,100789.28
2022-10-14T02:34:38.695Z,100790.22
2022-10-14T02:37:11.937Z,100777.94
2022-10-14T02:39:45.515Z,100777.06
2022-10-14T02:42:14.107Z,100776.22
2022-10-14T02:44:54.933Z,100770.94
2022-10-14T02:47:25.703Z,100768.25
2022-10-14T02:49:54.505Z,100767.38
2022-10-14T02:52:23.401Z,100756.84
2022-10-14T02:54:54.308Z,100762.13
2022-10-14T02:57:23.660Z,100762.13
2022-10-14T02:59:52.230Z,100759.47
2022-10-14T03:02:21.217Z,100757.69
2022-10-14T03:04:50.977Z,100745.44
2022-10-14T03:07:19.495Z,100744.59
2022-10-14T03:09:51.932Z,100748.16
2022-10-14T03:12:21.081Z,100747.25
2022-10-14T03:14:51.038Z,100745.50
2022-10-14T03:17:20.431Z,100741.13
2022-10-14T03:19:51.948Z,100735.09
2022-10-14T03:22:20.909Z,100740.34
2022-10-14T03:24:49.193Z,100739.53
2022-10-14T03:27:36.311Z,100738.72
2022-10-14T03:30:10.465Z,100731.78
2022-10-14T03:32:45.977Z,100737.03
2022-10-14T03:35:24.617Z,100732.75
2022-10-14T03:37:56.495Z,100731.94
2022-10-14T03:40:30.957Z,100732.00
2022-10-14T03:43:02.020Z,100722.38
2022-10-14T03:45:38.454Z,100724.25
2022-10-14T03:48:07.956Z,100724.25
2022-10-14T03:50:41.496Z,100718.19
2022-10-14T03:53:11.176Z,100724.38
2022-10-14T03:55:41.259Z,100722.63
2022-10-14T03:58:11.874Z,100723.56
2022-10-14T04:00:43.045Z,100731.47
2022-10-14T04:03:24.210Z,100726.19
2022-10-14T04:05:53.799Z,100731.47
2022-10-14T04:08:24.988Z,100726.16
2022-10-14T04:10:58.852Z,100724.38
2022-10-14T04:13:31.478Z,100726.09
2022-10-14T04:16:04.930Z,100716.41
2022-10-14T04:18:39.024Z,100710.28
2022-10-14T04:21:12.393Z,100702.34
2022-10-14T04:23:43.613Z,100708.47
2022-10-14T04:26:17.449Z,100710.25
2022-10-14T04:28:47.871Z,100718.06
2022-10-14T04:31:29.843Z,100716.28
2022-10-14T04:34:02.966Z,100717.16
2022-10-14T04:36:38.579Z,100702.25
2022-10-14T04:39:21.089Z,100704.91
2022-10-14T04:41:49.820Z,100703.13
2022-10-14T04:44:21.434Z,100686.47
2022-10-14T04:46:52.914Z,100691.72
2022-10-14T04:49:24.294Z,100679.47
2022-10-14T04:52:05.815Z,100681.19
2022-10-14T04:54:42.972Z,100679.47
2022-10-14T04:57:12.416Z,100673.34
2022-10-14T04:59:41.564Z,100676.00
2022-10-14T05:02:21.594Z,100665.44
2022-10-14T05:04:59.548Z,100668.88
2022-10-14T05:07:31.356Z,100673.28
2022-10-14T05:10:11.105Z,100661.81
2022-10-14T05:12:43.492Z,100659.19
2022-10-14T05:15:12.697Z,100654.81
2022-10-14T05:17:55.517Z,100658.28
2022-10-14T05:20:30.572Z,100662.63
2022-10-14T05:23:01.298Z,100662.63
2022-10-14T05:25:29.665Z,100660.81
2022-10-14T05:27:58.401Z,100660.81
2022-10-14T05:30:32.215Z,100662.53
2022-10-14T05:33:04.022Z,100651.13
2022-10-14T05:35:54.045Z,100658.09
2022-10-14T05:38:22.900Z,100652.84
2022-10-14T05:40:55.007Z,100647.53
2022-10-14T05:43:29.259Z,100651.88
2022-10-14T05:46:00.766Z,100649.19
2022-10-14T05:48:32.171Z,100644.78
2022-10-14T05:51:03.288Z,100649.13
2022-10-14T05:53:35.297Z,100653.50
2022-10-14T05:56:11.079Z,100645.53
2022-10-14T05:58:42.090Z,100641.09
2022-10-14T06:01:12.417Z,100644.56
2022-10-14T06:03:43.274Z,100649.75
2022-10-14T06:06:14.988Z,100648.00
2022-10-14T06:08:45.508Z,100644.44
2022-10-14T06:11:14.269Z,100647.00
2022-10-14T06:13:42.611Z,100653.16
2022-10-14T06:16:12.064Z,100654.88
2022-10-14T06:18:40.869Z,100653.03
2022-10-14T06:21:10.694Z,100653.03
2022-10-14T06:23:39.214Z,100659.09
2022-10-14T06:26:09.966Z,100649.38
2022-10-14T06:28:41.581Z,100652.81
2022-10-14T06:31:10.416Z,100649.25
2022-10-14T06:33:38.934Z,100651.84
2022-10-14T06:36:08.521Z,100644.72
2022-10-14T06:38:37.037Z,100645.53
2022-10-14T06:41:05.307Z,100649.94
2022-10-14T06:43:35.296Z,100646.38
2022-10-14T06:46:04.711Z,100649.88
2022-10-14T06:48:33.298Z,100650.72
2022-10-14T06:51:02.399Z,100655.97
2022-10-14T06:53:31.036Z,100648.91
2022-10-14T06:56:01.583Z,100650.59
2022-10-14T06:58:32.884Z,100650.59
2022-10-14T07:01:05.725Z,100647.06
2022-10-14T07:03:37.556Z,100647.84
2022-10-14T07:06:07.490Z,100643.41
2022-10-14T07:08:36.668Z,100652.13
2022-10-14T07:11:06.203Z,100642.31
2022-10-14T07:13:35.246Z,100639.50
2022-10-14T07:16:05.253Z,100648.06
2022-10-14T07:18:34.380Z,100646.13
2022-10-14T07:21:06.824Z,100639.03
2022-10-14T07:23:35.425Z,100645.94
2022-10-14T07:26:04.562Z,100646.75
2022-10-14T07:28:34.114Z,100632.66
2022-10-14T07:31:06.988Z,100626.38
2022-10-14T07:36:09.776Z,100634.97
2022-10-14T07:38:38.720Z,100629.56
2022-10-14T07:41:16.780Z,100633.00
2022-10-14T07:43:45.513Z,100632.03
2022-10-14T07:46:16.859Z,100627.63
2022-10-14T07:48:56.576Z,100627.63
2022-10-14T07:51:26.516Z,100628.47
2022-10-14T07:53:55.099Z,100631.97
2022-10-14T07:56:24.128Z,100634.59
2022-10-14T07:58:53.044Z,100623.19
2022-10-14T08:01:24.233Z,100629.31
2022-10-14T08:03:53.333Z,100629.31
2022-10-14T08:06:21.635Z,100631.06
2022-10-14T08:08:50.531Z,100629.19
2022-10-14T08:11:22.008Z,100630.94
2022-10-14T08:13:50.723Z,100629.06
2022-10-14T08:16:23.405Z,100624.66
2022-10-14T08:18:52.791Z,100621.97
2022-10-14T08:21:21.993Z,100620.13
2022-10-14T08:23:50.765Z,100621.84
2022-10-14T08:26:23.304Z,100623.63
2022-10-14T08:28:52.965Z,100621.84
2022-10-14T08:31:22.993Z,100618.25
2022-10-14T08:33:52.196Z,100630.56
2022-10-14T08:36:21.961Z,100632.28
2022-10-14T08:38:52.512Z,100633.06
2022-10-14T08:41:57.608Z,100632.13
2022-10-14T08:44:29.854Z,100624.09
2022-10-14T08:47:02.215Z,100627.44
2022-10-14T08:49:36.512Z,100620.25
2022-10-14T08:52:11.812Z,100626.25
2022-10-14T08:54:45.278Z,100612.00
2022-10-14T08:57:19.128Z,100618.88
2022-10-14T08:59:47.624Z,100610.88
2022-10-14T09:02:31.930Z,100610.84
2022-10-14T09:05:02.129Z,100610.63
2022-10-14T09:07:32.714Z,100602.50
2022-10-14T09:10:07.610Z,100596.13
2022-10-14T09:12:36.861Z,100602.13
2022-10-14T09:15:17.884Z,100597.50
2022-10-14T09:17:53.611Z,100598.00
2022-10-14T09:20:24.751Z,100590.69
2022-10-14T09:23:06.863Z,100593.78
2022-10-14T09:25:37.823Z,100586.38
2022-10-14T09:28:06.477Z,100578.94
2022-10-14T09:30:39.033Z,100579.53
2022-10-14T09:33:12.039Z,100575.84
2022-10-14T09:35:44.667Z,100578.50
2022-10-14T09:38:13.617Z,100581.81
2022-10-14T09:40:45.087Z,100576.09
2022-10-14T09:43:19.632Z,100568.53
2022-10-14T09:45:56.941Z,100566.25
2022-10-14T09:48:38.412Z,100555.22
2022-10-14T09:51:10.209Z,100550.34
2022-10-14T09:53:45.216Z,100556.28
2022-10-14T09:56:14.017Z,100551.63
2022-10-14T09:58:47.479Z,100555.88
2022-10-14T10:01:18.993Z,100546.09
2022-10-14T10:03:50.562Z,100546.19
2022-10-14T10:06:21.470Z,100540.94
2022-10-14T10:09:00.051Z,100537.59
2022-10-14T10:11:31.148Z,100536.75
2022-10-14T10:14:16.575Z,100537.06
2022-10-14T10:16:45.277Z,100527.97
2022-10-14T10:19:29.622Z,100527.50
2022-10-14T10:22:22.504Z,100531.22
2022-10-14T10:24:53.264Z,100531.16
2022-10-14T10:27:26.000Z,100533.81
2022-10-14T10:29:56.215Z,100530.13
2022-10-14T10:32:34.099Z,100520.34
2022-10-14T10:35:16.351Z,100513.97
2022-10-14T10:38:01.031Z,100520.00
2022-10-14T10:40:37.510Z,100514.59
2022-10-14T10:43:34.286Z,100520.19
2022-10-14T10:46:34.617Z,100513.19
2022-10-14T10:49:11.253Z,100503.47
2022-10-14T10:51:53.313Z,100503.63
2022-10-14T10:54:33.160Z,100509.91
2022-10-14T10:57:09.505Z,100514.41
2022-10-14T10:59:56.253Z,100500.28
2022-10-14T11:03:00.351Z,100511.16
2022-10-14T11:05:47.272Z,100504.50
2022-10-14T11:09:10.714Z,100505.63
2022-10-14T11:12:12.730Z,100497.19
2022-10-14T11:15:20.272Z,100494.16
2022-10-14T11:17:55.173Z,100494.34
2022-10-14T11:20:33.808Z,100487.84
2022-10-14T11:23:22.622Z,100478.44
2022-10-14T11:26:01.066Z,100482.94
2022-10-14T11:28:40.114Z,100479.50
2022-10-14T11:31:24.208Z,100474.28
2022-10-14T11:34:31.413Z,100474.22
2022-10-14T11:37:14.984Z,100469.72
2022-10-14T11:39:49.840Z,100468.03
2022-10-14T11:42:38.696Z,100462.94
2022-10-14T11:45:29.705Z,100456.22
2022-10-14T11:48:11.360Z,100459.06
2022-10-14T11:50:44.195Z,100458.34
2022-10-14T11:53:18.003Z,100451.44
2022-10-14T11:55:55.218Z,100453.38
2022-10-14T11:58:28.609Z,100448.97
2022-10-14T12:01:01.310Z,100444.59
2022-10-14T12:03:46.548Z,100450.78
2022-10-14T12:06:19.277Z,100445.59
2022-10-14T12:08:55.166Z,100443.66
2022-10-14T12:11:31.816Z,100445.22
2022-10-14T12:14:10.301Z,100436.22
2022-10-14T12:16:42.477Z,100429.88
2022-10-14T12:19:17.733Z,100428.03
2022-10-14T12:21:52.844Z,100419.97
2022-10-14T12:24:26.211Z,100418.81
2022-10-14T12:26:58.249Z,100415.78
2022-10-14T12:29:33.319Z,100408.38
2022-10-14T12:32:21.009Z,100403.63
2022-10-14T12:34:54.633Z,100410.41
2022-10-14T12:37:51.861Z,100410.25
2022-10-14T12:40:31.494Z,100406.53
2022-10-14T12:43:24.489Z,100402.81
2022-10-14T12:46:03.361Z,100400.03
2022-10-14T12:48:34.467Z,100400.66
2022-10-14T12:51:14.530Z,100407.56
2022-10-14T12:54:04.644Z,100410.97
2022-10-14T12:56:39.257Z,100414.31
2022-10-14T12:59:10.403Z,100404.44
2022-10-14T13:01:44.948Z,100412.31
2022-10-14T13:04:20.306Z,100404.44
2022-10-14T13:07:43.693Z,100406.13
2022-10-14T13:10:50.592Z,100397.13
2022-10-14T13:14:02.072Z,100393.38
2022-10-14T13:17:28.470Z,100393.22
2022-10-14T13:19:57.095Z,100379.84
2022-10-14T13:22:43.566Z,100382.50
2022-10-14T13:25:22.131Z,100373.50
2022-10-14T13:28:05.212Z,100372.69
2022-10-14T13:30:49.791Z,100360.84
2022-10-14T13:33:27.825Z,100371.00
2022-10-14T13:36:08.728Z,100358.97
2022-10-14T13:38:43.780Z,100350.28
2022-10-14T13:41:18.464Z,100338.75
2022-10-14T13:43:47.083Z,100336.78
2022-10-14T13:46:22.559Z,100339.09
2022-10-14T13:48:56.442Z,100339.00
2022-10-14T13:51:37.525Z,100335.34
2022-10-14T13:54:19.733Z,100340.47
2022-10-14T14:02:49.029Z,100319.81
2022-10-14T14:05:25.458Z,100323.59
2022-10-14T14:11:11.413Z,100320.28
2022-10-14T14:14:00.249Z,100322.91
2022-10-14T14:16:34.936Z,100336.09
2022-10-14T14:19:09.675Z,100321.06
2022-10-14T14:21:40.057Z,100317.44
2022-10-14T14:24:23.193Z,100296.38
2022-10-14T14:26:56.404Z,100301.72
2022-10-14T14:29:30.628Z,100296.63
2022-10-14T14:32:06.839Z,100293.19
2022-10-14T14:34:38.687Z,100288.84
2022-10-14T14:37:40.264Z,100305.66
2022-10-14T14:40:16.028Z,100307.38
2022-10-14T14:42:46.999Z,100307.38
2022-10-14T14:45:20.420Z,100300.22
2022-10-14T14:47:54.387Z,100293.00
2022-10-14T14:50:31.679Z,100293.88
2022-10-14T14:53:08.276Z,100285.91
2022-10-14T14:55:45.078Z,100289.63
2022-10-14T14:58:34.317Z,100287.13
2022-10-14T15:01:04.987Z,100286.19
2022-10-14T15:04:13.374Z,100294.38
2022-10-14T15:06:38.697Z,100282.34
2022-10-14T15:09:15.498Z,100273.78
2022-10-14T15:11:51.753Z,100268.91
2022-10-14T15:14:33.995Z,100274.47
2022-10-14T15:17:05.604Z,100269.22
2022-10-14T15:19:38.780Z,100270.19
2022-10-14T15:22:35.152Z,100277.28
2022-10-14T15:25:09.166Z,100271.81
2022-10-14T15:27:46.647Z,100274.38
2022-10-14T15:30:34.576Z,100286.75
2022-10-14T15:33:14.200Z,100285.72
2022-10-14T15:35:43.568Z,100261.06
2022-10-14T15:38:18.107Z,100269.75
2022-10-14T15:40:49.384Z,100255.66
2022-10-14T15:43:27.833Z,100253.88
2022-10-14T15:46:20.336Z,100269.75
2022-10-14T15:48:52.152Z,100266.19
2022-10-14T15:51:23.733Z,100260.13
2022-10-14T15:53:52.558Z,100255.94
2022-10-14T15:56:22.141Z,100245.69
2022-10-14T15:58:50.729Z,100235.44
2022-10-14T16:01:21.728Z,100248.03
2022-10-14T16:03:52.424Z,100245.63
2022-10-14T16:06:22.554Z,100245.78
2022-10-14T16:08:51.051Z,100236.22
2022-10-14T16:11:24.160Z,100239.97
2022-10-14T16:13:52.427Z,100239.19
2022-10-14T16:16:26.792Z,100242.00
2022-10-14T16:18:55.035Z,100229.72
2022-10-14T16:21:23.207Z,100236.03
2022-10-14T16:23:52.696Z,100236.97
2022-10-14T16:26:22.692Z,100245.75
2022-10-14T16:28:51.363Z,100238.78
2022-10-14T16:31:22.225Z,100224.75
2022-10-14T16:33:55.581Z,100226.47
2022-10-14T16:36:25.958Z,100223.06
2022-10-14T16:38:56.557Z,100228.34
2022-10-14T16:41:30.918Z,100223.06
2022-10-14T16:43:59.120Z,100229.22
2022-10-14T16:46:41.524Z,100230.06
2022-10-14T16:49:10.168Z,100226.56
2022-10-14T16:51:38.681Z,100222.13
2022-10-14T16:54:09.767Z,100219.47
2022-10-14T16:56:54.304Z,100227.34
2022-10-14T16:59:22.947Z,100231.75
2022-10-14T17:01:51.934Z,100230.06
2022-10-14T17:04:21.220Z,100224.75
2022-10-14T17:06:54.833Z,100229.09
2022-10-14T17:09:25.875Z,100232.69
2022-10-14T17:11:57.131Z,100231.91
2022-10-14T17:14:25.832Z,100219.63
2022-10-14T17:16:54.045Z,100218.81
2022-10-14T17:19:23.913Z,100223.34
2022-10-14T17:21:52.133Z,100220.00
2022-10-14T17:24:20.671Z,100220.94
2022-10-14T17:26:49.181Z,100221.03
2022-10-14T17:29:20.335Z,100222.81
2022-10-14T17:31:51.464Z,100221.94
2022-10-14T17:34:19.959Z,100229.88
2022-10-14T17:36:49.111Z,100215.91
2022-10-14T17:39:25.826Z,100218.56
2022-10-14T17:41:57.703Z,100215.97
2022-10-14T17:44:28.861Z,100217.66
2022-10-14T17:46:59.237Z,100219.47
2022-10-14T17:49:27.739Z,100208.03
2022-10-14T17:51:56.676Z,100217.84
2022-10-14T17:54:24.841Z,100227.56
2022-10-14T17:56:53.328Z,100230.28
2022-10-14T17:59:22.175Z,100239.13
2022-10-14T18:02:07.346Z,100227.72
2022-10-14T18:04:35.584Z,100232.38
2022-10-14T18:07:04.076Z,100228.81
2022-10-14T18:09:33.851Z,100226.03
2022-10-14T18:12:10.348Z,100222.44
2022-10-14T18:14:40.382Z,100225.84
2022-10-14T18:17:12.834Z,100222.38
2022-10-14T18:19:52.126Z,100213.56
2022-10-14T18:22:21.280Z,100209.31
2022-10-14T18:24:49.461Z,100209.47
2022-10-14T18:27:18.707Z,100201.59
2022-10-14T18:29:47.001Z,100198.19
2022-10-14T18:32:17.723Z,100203.47
2022-10-14T18:34:47.587Z,100196.47
2022-10-14T18:37:15.813Z,100197.31
2022-10-14T18:39:44.643Z,100198.19
2022-10-14T18:42:16.035Z,100193.78
2022-10-14T18:44:46.744Z,100197.25
2022-10-14T18:47:16.815Z,100197.25
2022-10-14T18:49:46.141Z,100192.81
2022-10-14T18:52:15.516Z,100201.59
2022-10-14T18:54:44.184Z,100195.38
2022-10-14T18:57:14.874Z,100191.03
2022-10-14T18:59:43.605Z,100184.91
2022-10-14T19:02:16.932Z,100184.97
2022-10-14T19:04:45.551Z,100185.22
2022-10-14T19:07:14.090Z,100181.78
2022-10-14T19:09:42.780Z,100172.38
2022-10-14T19:12:25.425Z,100178.00
2022-10-14T19:14:54.180Z,100181.91
2022-10-14T19:17:23.747Z,100176.22
2022-10-14T19:19:52.282Z,100180.03
2022-10-14T19:22:21.298Z,100176.84
2022-10-14T19:24:50.041Z,100168.28
2022-10-14T19:27:18.533Z,100168.28
2022-10-14T19:29:47.083Z,100163.06
2022-10-14T19:32:15.556Z,100158.59
2022-10-14T19:34:47.507Z,100151.59
2022-10-14T19:37:16.108Z,100146.31
2022-10-14T19:39:44.666Z,100145.38
2022-10-14T19:42:12.973Z,100137.47
2022-10-14T19:44:41.255Z,100130.31
2022-10-14T19:47:10.155Z,100125.03
2022-10-14T19:49:40.723Z,100120.66
2022-10-14T19:52:10.545Z,100111.84
2022-10-14T19:54:38.786Z,100111.03
2022-10-14T19:57:07.274Z,100111.03
2022-10-14T19:59:35.864Z,100106.72
2022-10-14T20:02:04.509Z,100093.50
2022-10-14T20:04:32.997Z,100097.06
2022-10-14T20:07:01.269Z,100087.44
2022-10-14T20:09:30.813Z,100090.09
2022-10-14T20:11:59.291Z,100090.94
2022-10-14T20:14:27.944Z,100096.22
2022-10-14T20:16:56.152Z,100100.66
2022-10-14T20:19:24.422Z,100093.66
2022-10-14T20:21:52.919Z,100090.09
2022-10-14T20:24:21.072Z,100090.09
2022-10-14T20:26:50.652Z,100097.06
2022-10-14T20:29:19.195Z,100088.22
2022-10-14T20:31:47.676Z,100089.06
2022-10-14T20:34:16.751Z,100087.28
2022-10-14T20:36:45.356Z,100084.63
2022-10-14T20:39:14.153Z,100090.72
2022-10-14T20:41:42.689Z,100084.53
2022-10-14T20:44:12.345Z,100076.63
2022-10-14T20:46:40.557Z,100082.78
2022-10-14T20:49:09.376Z,100068.63
2022-10-14T20:51:37.929Z,100068.63
2022-10-14T20:54:10.943Z,100066.84
2022-10-14T20:56:40.293Z,100063.34
2022-10-14T20:59:13.152Z,100066.78
2022-10-14T21:01:41.857Z,100068.47
2022-10-14T21:04:10.423Z,100064.13
2022-10-14T21:06:39.583Z,100059.59
2022-10-14T21:09:08.479Z,100055.22
2022-10-14T21:11:36.737Z,100056.06
2022-10-14T21:14:05.459Z,100043.75
2022-10-14T21:16:36.673Z,100048.13
2022-10-14T21:19:07.534Z,100039.28
2022-10-14T21:21:39.906Z,100047.19
2022-10-14T21:24:09.565Z,100039.28
2022-10-14T21:26:38.052Z,100042.84
2022-10-14T21:29:06.531Z,100025.28
2022-10-14T21:31:36.458Z,100033.19
2022-10-14T21:34:06.556Z,100019.25
2022-10-14T21:36:35.917Z,100035.16
2022-10-14T21:39:07.757Z,100022.97
2022-10-14T21:41:36.521Z,100021.44
2022-10-14T21:44:06.530Z,100032.94
2022-10-14T21:46:36.794Z,100016.53
2022-10-14T21:49:05.123Z,100015.09
2022-10-14T21:51:33.685Z,100006.38
2022-10-14T21:54:01.942Z,100003.91
2022-10-14T21:56:30.148Z,99999.63
2022-10-14T21:58:58.418Z,99998.94
2022-10-14T22:01:28.993Z,99994.69
2022-10-14T22:04:01.074Z,99990.41
2022-10-14T22:06:29.885Z,99993.19
2022-10-14T22:09:00.332Z,99982.66
2022-10-14T22:11:31.054Z,99977.38
2022-10-14T22:14:02.117Z,99979.19
2022-10-14T22:16:31.282Z,99980.06
2022-10-14T22:19:03.161Z,99968.63
2022-10-14T22:21:34.841Z,99967.78
2022-10-14T22:24:03.775Z,99959.03
2022-10-14T22:26:33.165Z,99956.38
2022-10-14T22:29:04.394Z,99961.66
2022-10-14T22:31:33.904Z,99968.63
2022-10-14T22:34:05.954Z,99960.69
2022-10-14T22:36:36.297Z,99959.84
2022-10-14T22:39:08.868Z,99959.84
2022-10-14T22:41:37.420Z,99956.25
2022-10-14T22:44:08.311Z,99958.84
2022-10-14T22:46:38.926Z,99952.69
2022-10-14T22:49:08.700Z,99956.09
2022-10-14T22:51:41.220Z,99949.13
2022-10-14T22:54:10.324Z,99946.38
2022-10-14T22:56:39.842Z,99948.13
2022-10-14T22:59:10.697Z,99950.66
2022-10-14T23:01:39.411Z,99943.69
2022-10-14T23:04:09.995Z,99938.31
2022-10-14T23:06:39.689Z,99936.53
2022-10-14T23:09:07.895Z,99938.25
2022-10-14T23:11:36.171Z,99936.34
2022-10-14T23:14:07.089Z,99937.22
2022-10-14T23:16:36.077Z,99937.13
2022-10-14T23:19:04.631Z,99934.50
2022-10-14T23:21:36.383Z,99925.63
2022-10-14T23:24:08.972Z,99932.63
2022-10-14T23:26:37.759Z,99929.91
2022-10-14T23:29:09.693Z,99925.47
2022-10-14T23:31:39.148Z,99930.69
2022-10-14T23:34:11.689Z,99927.97
2022-10-14T23:36:41.828Z,99917.41
2022-10-14T23:39:10.359Z,99926.09
2022-10-14T23:41:38.979Z,99911.09
2022-10-14T23:44:07.184Z,99906.69
2022-10-14T23:46:35.669Z,99903.09
2022-10-14T23:49:21.127Z,99912.72
2022-10-14T23:51:53.616Z,99904.91
2022-10-14T23:54:21.875Z,99896.88
2022-10-14T23:56:50.470Z,99902.16
2022-10-14T23:59:18.814Z,99909.16
